createdAt,value
2018-08-18T00:02:16.142Z,21.00
2018-08-18T00:04:44.374Z,21.00
2018-08-18T00:07:12.586Z,21.00
2018-08-18T00:09:40.884Z,21.00
2018-08-18T00:12:14.906Z,21.00
2018-08-18T00:14:43.125Z,21.00
2018-08-18T00:17:11.314Z,20.90
2018-08-18T00:19:39.535Z,21.00
2018-08-18T00:22:07.719Z,20.90
2018-08-18T00:24:41.268Z,20.90
2018-08-18T00:27:09.458Z,20.80
2018-08-18T00:29:38.328Z,20.70
2018-08-18T00:32:06.614Z,20.70
2018-08-18T00:34:35.686Z,20.60
2018-08-18T00:37:03.941Z,20.60
2018-08-18T00:39:32.203Z,20.60
2018-08-18T00:42:00.393Z,20.50
2018-08-18T00:44:28.608Z,20.40
2018-08-18T00:46:56.782Z,20.40
2018-08-18T00:49:24.994Z,20.30
2018-08-18T00:51:53.229Z,20.30
2018-08-18T00:54:21.383Z,20.30
2018-08-18T00:56:49.593Z,20.30
2018-08-18T00:59:27.792Z,20.20
2018-08-18T01:01:55.983Z,20.20
2018-08-18T01:04:24.172Z,20.10
2018-08-18T01:06:52.402Z,20.10
2018-08-18T01:09:20.773Z,20.00
2018-08-18T01:11:49.143Z,20.00
2018-08-18T01:14:21.731Z,20.00
2018-08-18T01:16:52.232Z,20.00
2018-08-18T01:19:21.442Z,19.90
2018-08-18T01:21:54.942Z,19.90
2018-08-18T01:24:23.165Z,19.80
2018-08-18T01:26:51.336Z,19.80
2018-08-18T01:29:19.618Z,19.70
2018-08-18T01:31:48.208Z,19.70
2018-08-18T01:34:16.418Z,19.60
2018-08-18T01:36:44.606Z,19.60
2018-08-18T01:39:14.268Z,19.60
2018-08-18T01:41:42.518Z,19.60
2018-08-18T01:44:13.612Z,19.50
2018-08-18T01:46:42.362Z,19.40
2018-08-18T01:49:31.674Z,19.40
2018-08-18T01:52:01.848Z,19.40
2018-08-18T01:54:30.233Z,19.40
2018-08-18T01:57:03.815Z,19.40
2018-08-18T01:59:32.082Z,19.40
2018-08-18T02:02:00.349Z,19.50
2018-08-18T02:04:28.522Z,19.50
2018-08-18T02:07:06.744Z,19.60
2018-08-18T02:09:34.909Z,19.60
2018-08-18T02:12:03.114Z,19.60
2018-08-18T02:14:31.294Z,19.60
2018-08-18T02:17:11.421Z,19.60
2018-08-18T02:19:39.606Z,19.70
2018-08-18T02:22:07.863Z,19.70
2018-08-18T02:24:36.072Z,19.70
2018-08-18T02:27:04.675Z,19.80
2018-08-18T02:29:32.876Z,19.80
2018-08-18T02:32:01.056Z,19.80
2018-08-18T02:34:29.260Z,19.80
2018-08-18T02:36:57.460Z,19.80
2018-08-18T02:39:25.729Z,19.80
2018-08-18T02:41:58.755Z,19.70
2018-08-18T02:44:26.985Z,19.60
2018-08-18T02:46:55.182Z,19.60
2018-08-18T02:49:23.392Z,19.50
2018-08-18T02:51:51.593Z,19.40
2018-08-18T02:54:20.315Z,19.40
2018-08-18T02:56:48.543Z,19.30
2018-08-18T02:59:16.787Z,19.30
2018-08-18T03:01:45.421Z,19.30
2018-08-18T03:04:14.674Z,19.20
2018-08-18T03:06:42.908Z,19.20
2018-08-18T03:09:12.189Z,19.10
2018-08-18T03:11:41.714Z,19.10
2018-08-18T03:14:10.159Z,19.00
2018-08-18T03:16:39.768Z,18.90
2018-08-18T03:19:07.965Z,18.90
2018-08-18T03:21:41.969Z,18.80
2018-08-18T03:24:17.219Z,18.80
2018-08-18T03:26:46.416Z,18.70
2018-08-18T03:29:15.641Z,18.70
2018-08-18T03:31:44.316Z,18.70
2018-08-18T03:34:12.935Z,18.60
2018-08-18T03:36:42.803Z,18.60
2018-08-18T03:39:19.107Z,18.60
2018-08-18T03:41:47.391Z,18.60
2018-08-18T03:44:15.569Z,18.60
2018-08-18T03:46:43.763Z,18.60
2018-08-18T03:49:11.989Z,18.50
2018-08-18T03:51:43.045Z,18.50
2018-08-18T03:54:11.544Z,18.50
2018-08-18T03:56:40.113Z,18.50
2018-08-18T03:59:08.542Z,18.40
2018-08-18T04:01:46.657Z,18.40
2018-08-18T04:04:15.949Z,18.40
2018-08-18T04:06:45.212Z,18.30
2018-08-18T04:09:14.731Z,18.30
2018-08-18T04:11:42.919Z,18.30
2018-08-18T04:14:11.340Z,18.30
2018-08-18T04:16:41.421Z,18.20
2018-08-18T04:19:09.631Z,18.20
2018-08-18T04:21:37.838Z,18.20
2018-08-18T04:24:06.046Z,18.20
2018-08-18T04:26:34.255Z,18.20
2018-08-18T04:29:02.441Z,18.20
2018-08-18T04:31:31.231Z,18.20
2018-08-18T04:34:01.323Z,18.10
2018-08-18T04:36:29.506Z,18.10
2018-08-18T04:38:57.989Z,18.10
2018-08-18T04:41:26.229Z,18.00
2018-08-18T04:43:54.715Z,18.00
2018-08-18T04:46:22.907Z,18.00
2018-08-18T04:48:51.108Z,18.00
2018-08-18T04:51:19.316Z,17.90
2018-08-18T04:53:47.522Z,18.00
2018-08-18T04:56:15.732Z,18.00
2018-08-18T04:58:44.067Z,18.00
2018-08-18T05:01:12.264Z,18.10
2018-08-18T05:03:56.379Z,18.10
2018-08-18T05:06:27.327Z,18.10
2018-08-18T05:08:56.950Z,18.20
2018-08-18T05:11:25.238Z,18.20
2018-08-18T05:13:53.448Z,18.20
2018-08-18T05:16:21.630Z,18.20
2018-08-18T05:18:50.134Z,18.20
2018-08-18T05:21:19.379Z,18.20
2018-08-18T05:23:47.568Z,18.30
2018-08-18T05:26:15.764Z,18.30
2018-08-18T05:28:43.945Z,18.40
2018-08-18T05:31:12.173Z,18.40
2018-08-18T05:33:40.366Z,18.50
2018-08-18T05:36:09.059Z,18.60
2018-08-18T05:38:38.594Z,18.70
2018-08-18T05:41:06.782Z,18.70
2018-08-18T05:43:34.987Z,18.80
2018-08-18T05:46:03.898Z,18.90
2018-08-18T05:48:32.115Z,18.90
2018-08-18T05:51:00.328Z,19.10
2018-08-18T05:53:29.787Z,19.10
2018-08-18T05:55:58.467Z,19.20
2018-08-18T05:58:26.835Z,19.30
2018-08-18T06:01:31.595Z,19.40
2018-08-18T06:04:04.034Z,19.50
2018-08-18T06:06:32.563Z,19.60
2018-08-18T06:09:00.838Z,19.70
2018-08-18T06:11:29.028Z,19.70
2018-08-18T06:13:57.232Z,19.90
2018-08-18T06:16:25.445Z,19.90
2018-08-18T06:18:53.645Z,20.00
2018-08-18T06:21:21.847Z,20.10
2018-08-18T06:23:50.360Z,20.10
2018-08-18T06:26:18.563Z,20.20
2018-08-18T06:28:46.890Z,20.30
2018-08-18T06:31:15.203Z,20.40
2018-08-18T06:33:43.404Z,20.50
2018-08-18T06:36:11.610Z,20.60
2018-08-18T06:38:39.805Z,20.70
2018-08-18T06:41:08.105Z,20.80
2018-08-18T06:43:36.234Z,21.00
2018-08-18T06:46:04.478Z,21.10
2018-08-18T06:48:36.108Z,21.20
2018-08-18T06:51:04.356Z,21.40
2018-08-18T06:53:37.950Z,21.50
2018-08-18T06:56:06.457Z,21.60
2018-08-18T06:58:34.876Z,21.70
2018-08-18T07:01:03.202Z,21.80
2018-08-18T07:03:33.760Z,21.90
2018-08-18T07:06:02.751Z,22.00
2018-08-18T07:08:32.854Z,22.10
2018-08-18T07:11:01.788Z,22.20
2018-08-18T07:13:30.852Z,22.30
2018-08-18T07:15:59.048Z,22.30
2018-08-18T07:18:27.326Z,22.30
2018-08-18T07:20:55.574Z,22.40
2018-08-18T07:23:23.782Z,22.50
2018-08-18T07:25:58.145Z,22.60
2018-08-18T07:28:26.470Z,22.60
2018-08-18T07:30:54.811Z,22.80
2018-08-18T07:33:23.430Z,22.80
2018-08-18T07:35:51.646Z,22.90
2018-08-18T07:38:20.791Z,23.00
2018-08-18T07:40:50.826Z,23.10
2018-08-18T07:43:23.898Z,23.20
2018-08-18T07:45:53.075Z,23.30
2018-08-18T07:48:21.340Z,23.50
2018-08-18T07:50:49.540Z,23.60
2018-08-18T07:53:17.937Z,23.80
2018-08-18T07:55:45.990Z,24.00
2018-08-18T07:58:15.821Z,24.20
2018-08-18T08:00:44.213Z,24.40
2018-08-18T08:03:13.299Z,24.50
2018-08-18T08:05:41.561Z,24.60
2018-08-18T08:08:10.154Z,24.60
2018-08-18T08:10:38.395Z,24.60
2018-08-18T08:13:06.638Z,24.60
2018-08-18T08:15:34.867Z,24.60
2018-08-18T08:18:03.159Z,24.80
2018-08-18T08:20:31.366Z,24.90
2018-08-18T08:22:59.589Z,25.00
2018-08-18T08:25:27.810Z,25.10
2018-08-18T08:27:56.391Z,25.20
2018-08-18T08:30:25.720Z,25.30
2018-08-18T08:32:54.102Z,25.20
2018-08-18T08:35:22.404Z,25.30
2018-08-18T08:37:52.159Z,25.30
2018-08-18T08:40:21.404Z,25.40
2018-08-18T08:42:49.630Z,25.60
2018-08-18T08:45:18.996Z,25.70
2018-08-18T08:47:47.995Z,25.60
2018-08-18T08:50:18.382Z,25.70
2018-08-18T08:52:55.604Z,26.00
2018-08-18T08:55:25.010Z,26.40
2018-08-18T08:57:53.325Z,27.00
2018-08-18T09:00:21.574Z,27.60
2018-08-18T09:02:49.841Z,28.10
2018-08-18T09:05:18.946Z,28.70
2018-08-18T09:07:47.155Z,29.50
2018-08-18T09:10:15.997Z,30.50
2018-08-18T09:12:44.176Z,30.90
2018-08-18T09:15:13.346Z,31.60
2018-08-18T09:17:41.585Z,32.30
2018-08-18T09:20:12.687Z,32.80
2018-08-18T09:22:53.126Z,33.30
2018-08-18T09:25:21.303Z,33.70
2018-08-18T09:27:56.923Z,33.90
2018-08-18T09:30:26.769Z,33.70
2018-08-18T09:32:57.799Z,33.70
2018-08-18T09:35:26.004Z,33.80
2018-08-18T09:38:00.451Z,33.90
2018-08-18T09:40:30.243Z,33.90
2018-08-18T09:42:58.533Z,34.20
2018-08-18T09:45:26.812Z,34.10
2018-08-18T09:47:55.313Z,33.90
2018-08-18T09:50:23.544Z,33.90
2018-08-18T09:52:51.765Z,34.30
2018-08-18T09:55:19.987Z,34.30
2018-08-18T09:57:48.209Z,34.50
2018-08-18T10:00:16.433Z,34.70
2018-08-18T10:02:44.661Z,35.20
2018-08-18T10:05:12.885Z,35.70
2018-08-18T10:07:41.340Z,36.20
2018-08-18T10:10:11.367Z,36.30
2018-08-18T10:12:39.823Z,36.20
2018-08-18T10:15:08.012Z,36.30
2018-08-18T10:17:36.435Z,36.50
2018-08-18T10:20:05.027Z,36.80
2018-08-18T10:22:33.253Z,37.00
2018-08-18T10:25:01.643Z,37.40
2018-08-18T10:27:29.835Z,37.10
2018-08-18T10:29:58.064Z,37.00
2018-08-18T10:32:26.273Z,37.00
2018-08-18T10:34:54.497Z,37.30
2018-08-18T10:37:22.703Z,37.60
2018-08-18T10:39:51.299Z,37.50
2018-08-18T10:42:24.765Z,37.10
2018-08-18T10:44:58.405Z,36.70
2018-08-18T10:47:26.591Z,36.50
2018-08-18T10:50:06.144Z,36.70
2018-08-18T10:52:45.743Z,37.10
2018-08-18T10:55:15.247Z,37.40
2018-08-18T10:57:55.284Z,37.60
2018-08-18T11:00:24.285Z,37.10
2018-08-18T11:02:53.577Z,36.60
2018-08-18T11:05:22.621Z,36.80
2018-08-18T11:07:57.221Z,36.90
2018-08-18T11:10:27.337Z,37.10
2018-08-18T11:12:55.601Z,37.10
2018-08-18T11:15:23.866Z,37.20
2018-08-18T11:17:52.202Z,36.80
2018-08-18T11:20:21.577Z,36.50
2018-08-18T11:22:52.622Z,36.70
2018-08-18T11:25:24.329Z,37.40
2018-08-18T11:27:53.201Z,37.50
2018-08-18T11:30:21.774Z,37.30
2018-08-18T11:32:50.737Z,37.80
2018-08-18T11:35:18.938Z,38.40
2018-08-18T11:37:55.290Z,38.60
2018-08-18T11:40:24.428Z,39.10
2018-08-18T11:42:55.738Z,39.10
2018-08-18T11:45:25.372Z,39.00
2018-08-18T11:47:59.376Z,39.00
2018-08-18T11:50:28.214Z,39.20
2018-08-18T11:52:56.831Z,39.10
2018-08-18T11:55:25.065Z,39.10
2018-08-18T11:57:54.740Z,39.40
2018-08-18T12:00:26.666Z,39.50
2018-08-18T12:02:55.344Z,39.50
2018-08-18T12:05:23.565Z,39.70
2018-08-18T12:07:52.312Z,39.40
2018-08-18T12:10:20.521Z,39.30
2018-08-18T12:12:48.717Z,39.10
2018-08-18T12:15:16.916Z,39.40
2018-08-18T12:17:55.265Z,39.60
2018-08-18T12:20:23.788Z,40.10
2018-08-18T12:22:53.483Z,40.70
2018-08-18T12:25:21.831Z,41.20
2018-08-18T12:27:50.475Z,41.60
2018-08-18T12:30:30.258Z,42.10
2018-08-18T12:32:59.909Z,42.00
2018-08-18T12:35:32.028Z,41.60
2018-08-18T12:38:00.595Z,41.30
2018-08-18T12:40:31.788Z,40.60
2018-08-18T12:43:03.699Z,40.30
2018-08-18T12:45:31.910Z,40.50
2018-08-18T12:48:04.684Z,40.60
2018-08-18T12:50:32.866Z,40.40
2018-08-18T12:53:01.040Z,40.60
2018-08-18T12:55:29.238Z,40.60
2018-08-18T12:57:57.656Z,40.50
2018-08-18T13:00:25.944Z,40.60
2018-08-18T13:02:55.546Z,41.00
2018-08-18T13:05:25.528Z,41.40
2018-08-18T13:07:54.500Z,41.40
2018-08-18T13:10:25.855Z,41.40
2018-08-18T13:12:54.923Z,41.50
2018-08-18T13:15:23.144Z,41.60
2018-08-18T13:17:51.507Z,41.90
2018-08-18T13:20:22.231Z,42.30
2018-08-18T13:22:50.602Z,42.50
2018-08-18T13:25:18.813Z,42.30
2018-08-18T13:27:54.026Z,41.80
2018-08-18T13:30:23.020Z,41.50
2018-08-18T13:32:53.984Z,41.20
2018-08-18T13:35:22.174Z,40.80
2018-08-18T13:37:50.506Z,40.50
2018-08-18T13:40:18.729Z,39.90
2018-08-18T13:42:46.936Z,39.70
2018-08-18T13:45:15.166Z,39.80
2018-08-18T13:47:43.372Z,39.80
2018-08-18T13:50:13.404Z,40.10
2018-08-18T13:52:46.913Z,40.70
2018-08-18T13:55:15.117Z,40.90
2018-08-18T13:57:43.311Z,40.90
2018-08-18T14:00:14.161Z,41.20
2018-08-18T14:02:43.067Z,41.30
2018-08-18T14:05:18.733Z,41.80
2018-08-18T14:07:53.514Z,42.00
2018-08-18T14:10:21.675Z,41.80
2018-08-18T14:12:49.881Z,41.50
2018-08-18T14:15:18.091Z,40.90
2018-08-18T14:17:46.271Z,40.60
2018-08-18T14:20:14.501Z,40.40
2018-08-18T14:22:42.715Z,39.80
2018-08-18T14:25:10.919Z,39.50
2018-08-18T14:27:41.276Z,39.40
2018-08-18T14:30:09.465Z,39.70
2018-08-18T14:32:37.659Z,39.90
2018-08-18T14:35:06.387Z,40.10
2018-08-18T14:37:35.935Z,40.40
2018-08-18T14:40:06.244Z,40.80
2018-08-18T14:42:34.447Z,40.70
2018-08-18T14:45:02.644Z,40.10
2018-08-18T14:47:30.872Z,39.80
2018-08-18T14:50:13.699Z,39.50
2018-08-18T14:52:43.158Z,39.00
2018-08-18T14:55:11.483Z,38.60
2018-08-18T14:57:45.277Z,38.10
2018-08-18T15:00:13.469Z,37.90
2018-08-18T15:02:41.922Z,37.80
2018-08-18T15:05:10.121Z,38.10
2018-08-18T15:07:43.681Z,38.30
2018-08-18T15:10:23.193Z,38.40
2018-08-18T15:12:51.419Z,38.10
2018-08-18T15:15:19.600Z,38.00
2018-08-18T15:17:48.461Z,37.90
2018-08-18T15:20:16.651Z,37.80
2018-08-18T15:22:44.837Z,37.60
2018-08-18T15:25:13.033Z,36.90
2018-08-18T15:27:41.213Z,36.50
2018-08-18T15:30:09.405Z,36.10
2018-08-18T15:32:37.591Z,35.80
2018-08-18T15:35:05.781Z,35.60
2018-08-18T15:37:33.990Z,35.50
2018-08-18T15:40:02.186Z,35.30
2018-08-18T15:42:30.400Z,35.00
2018-08-18T15:45:00.602Z,34.60
2018-08-18T15:47:30.216Z,34.30
2018-08-18T15:49:59.082Z,34.10
2018-08-18T15:52:31.364Z,34.10
2018-08-18T15:55:00.128Z,33.90
2018-08-18T15:57:28.347Z,33.60
2018-08-18T15:59:56.537Z,33.20
2018-08-18T16:02:24.726Z,32.70
2018-08-18T16:04:52.983Z,32.30
2018-08-18T16:07:21.182Z,32.00
2018-08-18T16:09:49.517Z,31.80
2018-08-18T16:12:17.781Z,31.70
2018-08-18T16:14:45.997Z,31.40
2018-08-18T16:17:14.201Z,31.20
2018-08-18T16:19:42.429Z,31.00
2018-08-18T16:22:10.649Z,30.80
2018-08-18T16:24:43.903Z,30.80
2018-08-18T16:27:12.141Z,30.60
2018-08-18T16:29:40.679Z,30.50
2018-08-18T16:32:17.851Z,30.30
2018-08-18T16:34:47.281Z,30.30
2018-08-18T16:37:15.757Z,30.30
2018-08-18T16:39:44.459Z,30.20
2018-08-18T16:42:14.011Z,30.10
2018-08-18T16:44:42.468Z,30.00
2018-08-18T16:47:10.907Z,30.00
2018-08-18T16:49:39.163Z,29.90
2018-08-18T16:52:07.391Z,29.80
2018-08-18T16:54:35.588Z,29.70
2018-08-18T16:57:03.798Z,29.70
2018-08-18T16:59:35.495Z,29.60
2018-08-18T17:02:04.395Z,29.50
2018-08-18T17:04:33.852Z,29.60
2018-08-18T17:07:03.436Z,29.60
2018-08-18T17:09:38.443Z,29.50
2018-08-18T17:12:19.169Z,29.50
2018-08-18T17:14:47.627Z,29.50
2018-08-18T17:17:15.829Z,29.40
2018-08-18T17:19:44.027Z,29.30
2018-08-18T17:22:13.951Z,29.20
2018-08-18T17:24:42.159Z,29.20
2018-08-18T17:27:10.363Z,29.10
2018-08-18T17:29:42.041Z,29.00
2018-08-18T17:32:10.405Z,28.90
2018-08-18T17:34:38.703Z,28.90
2018-08-18T17:37:07.179Z,28.80
2018-08-18T17:39:35.660Z,28.70
2018-08-18T17:42:03.925Z,28.70
2018-08-18T17:44:32.133Z,28.60
2018-08-18T17:47:04.416Z,28.50
2018-08-18T17:49:41.142Z,28.40
2018-08-18T17:52:09.635Z,28.40
2018-08-18T17:54:38.452Z,28.40
2018-08-18T17:57:07.171Z,28.30
2018-08-18T17:59:35.959Z,28.20
2018-08-18T18:02:07.545Z,28.20
2018-08-18T18:04:35.746Z,28.10
2018-08-18T18:07:04.023Z,28.10
2018-08-18T18:09:33.599Z,28.00
2018-08-18T18:12:27.826Z,27.90
2018-08-18T18:14:56.369Z,27.90
2018-08-18T18:17:25.058Z,27.80
2018-08-18T18:19:55.900Z,27.70
2018-08-18T18:22:24.259Z,27.60
2018-08-18T18:24:52.485Z,27.50
2018-08-18T18:27:20.673Z,27.50
2018-08-18T18:29:48.850Z,27.40
2018-08-18T18:32:17.047Z,27.30
2018-08-18T18:34:46.958Z,27.30
2018-08-18T18:37:15.281Z,27.20
2018-08-18T18:40:02.017Z,27.10
2018-08-18T18:42:30.187Z,27.00
2018-08-18T18:44:58.864Z,27.00
2018-08-18T18:47:27.676Z,26.80
2018-08-18T18:49:55.891Z,26.70
2018-08-18T18:52:24.121Z,26.70
2018-08-18T18:54:55.460Z,26.60
2018-08-18T18:57:23.864Z,26.50
2018-08-18T18:59:55.779Z,26.40
2018-08-18T19:02:35.456Z,26.40
2018-08-18T19:05:14.006Z,26.30
2018-08-18T19:07:42.238Z,26.20
2018-08-18T19:10:10.430Z,26.00
2018-08-18T19:12:38.612Z,26.00
2018-08-18T19:15:06.826Z,25.80
2018-08-18T19:17:35.002Z,25.70
2018-08-18T19:20:21.012Z,25.60
2018-08-18T19:22:49.752Z,25.50
2018-08-18T19:25:17.964Z,25.30
2018-08-18T19:27:46.268Z,25.10
2018-08-18T19:30:14.469Z,25.00
2018-08-18T19:32:42.717Z,24.80
2018-08-18T19:35:10.885Z,24.70
2018-08-18T19:37:44.580Z,24.60
2018-08-18T19:40:12.814Z,24.50
2018-08-18T19:42:40.985Z,24.40
2018-08-18T19:45:09.327Z,24.30
2018-08-18T19:47:38.512Z,24.20
2018-08-18T19:50:07.769Z,24.10
2018-08-18T19:52:35.946Z,24.00
2018-08-18T19:55:04.421Z,23.90
2018-08-18T19:57:37.065Z,23.80
2018-08-18T20:00:13.338Z,23.70
2018-08-18T20:02:51.963Z,23.70
2018-08-18T20:05:21.186Z,23.60
2018-08-18T20:07:49.586Z,23.50
2018-08-18T20:10:17.950Z,23.40
2018-08-18T20:12:46.218Z,23.30
2018-08-18T20:15:14.924Z,23.20
2018-08-18T20:17:43.534Z,23.20
2018-08-18T20:20:12.090Z,23.10
2018-08-18T20:22:40.684Z,23.10
2018-08-18T20:25:08.914Z,23.00
2018-08-18T20:27:38.161Z,22.90
2018-08-18T20:30:06.386Z,22.90
2018-08-18T20:32:34.567Z,22.80
2018-08-18T20:35:02.780Z,22.80
2018-08-18T20:37:30.998Z,22.80
2018-08-18T20:39:59.318Z,22.80
2018-08-18T20:42:33.332Z,22.80
2018-08-18T20:45:01.537Z,22.70
2018-08-18T20:47:31.175Z,22.60
2018-08-18T20:49:59.622Z,22.50
2018-08-18T20:52:28.903Z,22.40
2018-08-18T20:54:58.022Z,22.30
2018-08-18T20:57:26.230Z,22.30
2018-08-18T20:59:54.404Z,22.30
2018-08-18T21:02:22.621Z,22.30
2018-08-18T21:04:56.026Z,22.20
2018-08-18T21:07:24.261Z,22.10
2018-08-18T21:09:52.465Z,22.00
2018-08-18T21:12:20.702Z,22.00
2018-08-18T21:14:48.899Z,21.90
2018-08-18T21:17:17.123Z,21.90
2018-08-18T21:19:45.333Z,21.90
2018-08-18T21:22:14.475Z,21.90
2018-08-18T21:24:42.683Z,22.00
2018-08-18T21:27:10.866Z,21.90
2018-08-18T21:29:39.069Z,21.80
2018-08-18T21:32:07.270Z,21.80
2018-08-18T21:34:43.719Z,21.70
2018-08-18T21:37:11.927Z,21.60
2018-08-18T21:39:40.170Z,21.60
2018-08-18T21:42:08.343Z,21.50
2018-08-18T21:44:36.583Z,21.50
2018-08-18T21:47:04.795Z,21.40
2018-08-18T21:49:33.047Z,21.40
2018-08-18T21:52:01.237Z,21.30
2018-08-18T21:54:29.445Z,21.30
2018-08-18T21:56:57.631Z,21.30
2018-08-18T21:59:25.819Z,21.30
2018-08-18T22:01:58.017Z,21.30
2018-08-18T22:04:26.237Z,21.30
2018-08-18T22:06:54.424Z,21.20
2018-08-18T22:09:27.387Z,21.10
2018-08-18T22:11:55.612Z,21.00
2018-08-18T22:14:23.807Z,21.00
2018-08-18T22:16:58.091Z,20.90
2018-08-18T22:19:27.267Z,20.90
2018-08-18T22:21:55.473Z,20.90
2018-08-18T22:24:23.687Z,20.90
2018-08-18T22:26:51.920Z,20.90
2018-08-18T22:29:23.075Z,20.80
2018-08-18T22:31:51.538Z,20.80
2018-08-18T22:34:19.761Z,20.80
2018-08-18T22:36:47.963Z,20.80
2018-08-18T22:39:17.707Z,20.70
2018-08-18T22:41:45.913Z,20.70
2018-08-18T22:44:14.117Z,20.70
2018-08-18T22:46:42.323Z,20.70
2018-08-18T22:49:10.525Z,20.60
2018-08-18T22:51:38.808Z,20.50
2018-08-18T22:54:07.003Z,20.40
2018-08-18T22:56:35.221Z,20.40
2018-08-18T22:59:05.139Z,20.40
2018-08-18T23:01:34.624Z,20.40
2018-08-18T23:04:03.669Z,20.30
2018-08-18T23:06:34.341Z,20.30
2018-08-18T23:09:02.539Z,20.20
2018-08-18T23:11:30.729Z,20.10
2018-08-18T23:13:58.983Z,20.00
2018-08-18T23:16:27.172Z,19.90
2018-08-18T23:18:55.434Z,19.70
2018-08-18T23:21:28.968Z,19.60
2018-08-18T23:23:58.363Z,19.60
2018-08-18T23:26:26.569Z,19.60
2018-08-18T23:28:54.837Z,19.60
2018-08-18T23:31:23.030Z,19.60
2018-08-18T23:33:51.243Z,19.60
2018-08-18T23:36:19.465Z,19.60
2018-08-18T23:38:54.845Z,19.50
2018-08-18T23:41:23.178Z,19.50
2018-08-18T23:43:51.783Z,19.40
2018-08-18T23:46:19.975Z,19.40
2018-08-18T23:48:48.174Z,19.50
2018-08-18T23:51:16.370Z,19.50
2018-08-18T23:53:44.570Z,19.40
2018-08-18T23:56:12.791Z,19.40
2018-08-18T23:58:40.975Z,19.40
